sensor_id;sensor_type;location;lat;lon;timestamp;pressure;altitude;pressure_sealevel;temperature;humidity
65832;BME280;52593;42.648;23.332;2023-02-19T00:00:59;94823.56;;;4.73;66.35
65832;BME280;52593;42.648;23.332;2023-02-19T00:03:26;94824.69;;;4.80;65.89
65832;BME280;52593;42.648;23.332;2023-02-19T00:05:51;94810.47;;;4.61;66.38
65832;BME280;52593;42.648;23.332;2023-02-19T00:08:17;94825.13;;;4.46;67.19
65832;BME280;52593;42.648;23.332;2023-02-19T00:10:42;94816.19;;;4.57;67.44
65832;BME280;52593;42.648;23.332;2023-02-19T00:13:07;94808.94;;;4.49;67.24
65832;BME280;52593;42.648;23.332;2023-02-19T00:15:33;94830.16;;;4.49;66.29
65832;BME280;52593;42.648;23.332;2023-02-19T00:17:58;94801.25;;;4.26;66.76
65832;BME280;52593;42.648;23.332;2023-02-19T00:20:24;94802.09;;;4.07;68.26
65832;BME280;52593;42.648;23.332;2023-02-19T00:22:49;94805.56;;;4.18;68.15
65832;BME280;52593;42.648;23.332;2023-02-19T00:25:15;94816.06;;;4.29;67.99
65832;BME280;52593;42.648;23.332;2023-02-19T00:27:40;94803.22;;;4.24;67.84
65832;BME280;52593;42.648;23.332;2023-02-19T00:30:06;94808.53;;;4.24;68.15
65832;BME280;52593;42.648;23.332;2023-02-19T00:32:32;94796.94;;;4.16;68.82
65832;BME280;52593;42.648;23.332;2023-02-19T00:34:57;94794.69;;;4.21;68.21
65832;BME280;52593;42.648;23.332;2023-02-19T00:37:23;94791.38;;;4.19;68.12
65832;BME280;52593;42.648;23.332;2023-02-19T00:39:48;94790.53;;;4.18;68.64
65832;BME280;52593;42.648;23.332;2023-02-19T00:42:13;94794.00;;;4.19;68.40
65832;BME280;52593;42.648;23.332;2023-02-19T00:44:39;94784.66;;;4.15;67.47
65832;BME280;52593;42.648;23.332;2023-02-19T00:47:04;94791.06;;;3.92;69.05
65832;BME280;52593;42.648;23.332;2023-02-19T00:49:30;94799.16;;;4.01;69.40
65832;BME280;52593;42.648;23.332;2023-02-19T00:51:55;94791.75;;;3.95;69.89
65832;BME280;52593;42.648;23.332;2023-02-19T00:54:21;94790.50;;;3.99;69.36
65832;BME280;52593;42.648;23.332;2023-02-19T00:56:47;94795.66;;;4.00;69.33
65832;BME280;52593;42.648;23.332;2023-02-19T00:59:13;94780.88;;;3.88;69.81
65832;BME280;52593;42.648;23.332;2023-02-19T01:01:39;94765.97;;;3.87;69.72
65832;BME280;52593;42.648;23.332;2023-02-19T01:04:05;94772.94;;;3.98;69.37
65832;BME280;52593;42.648;23.332;2023-02-19T01:06:30;94773.78;;;4.08;69.35
65832;BME280;52593;42.648;23.332;2023-02-19T01:08:57;94772.56;;;4.12;69.39
65832;BME280;52593;42.648;23.332;2023-02-19T01:11:22;94766.84;;;4.17;69.00
65832;BME280;52593;42.648;23.332;2023-02-19T01:13:48;94775.19;;;4.22;69.15
65832;BME280;52593;42.648;23.332;2023-02-19T01:16:22;94770.03;;;4.20;68.57
65832;BME280;52593;42.648;23.332;2023-02-19T01:18:49;94771.16;;;4.27;68.98
65832;BME280;52593;42.648;23.332;2023-02-19T01:21:20;94768.63;;;4.36;68.47
65832;BME280;52593;42.648;23.332;2023-02-19T01:23:46;94760.81;;;4.44;68.19
65832;BME280;52593;42.648;23.332;2023-02-19T01:26:14;94768.63;;;4.45;68.29
65832;BME280;52593;42.648;23.332;2023-02-19T01:28:40;94759.72;;;4.37;68.00
65832;BME280;52593;42.648;23.332;2023-02-19T01:31:07;94775.88;;;4.43;67.74
65832;BME280;52593;42.648;23.332;2023-02-19T01:33:34;94763.34;;;4.36;67.42
65832;BME280;52593;42.648;23.332;2023-02-19T01:36:02;94795.28;;;4.34;67.94
65832;BME280;52593;42.648;23.332;2023-02-19T01:38:28;94793.88;;;4.30;68.48
65832;BME280;52593;42.648;23.332;2023-02-19T01:40:58;94793.19;;;4.18;68.59
65832;BME280;52593;42.648;23.332;2023-02-19T01:43:24;94791.19;;;4.01;69.25
65832;BME280;52593;42.648;23.332;2023-02-19T01:45:50;94811.28;;;4.13;68.77
65832;BME280;52593;42.648;23.332;2023-02-19T01:48:34;94824.84;;;4.20;68.52
65832;BME280;52593;42.648;23.332;2023-02-19T01:51:12;94836.06;;;4.02;69.15
65832;BME280;52593;42.648;23.332;2023-02-19T01:53:43;94821.59;;;4.06;69.35
65832;BME280;52593;42.648;23.332;2023-02-19T01:56:10;94832.47;;;4.03;69.67
65832;BME280;52593;42.648;23.332;2023-02-19T01:58:37;94838.31;;;3.97;69.43
65832;BME280;52593;42.648;23.332;2023-02-19T02:01:05;94816.81;;;3.81;69.97
65832;BME280;52593;42.648;23.332;2023-02-19T02:03:31;94814.28;;;3.69;70.75
65832;BME280;52593;42.648;23.332;2023-02-19T02:08:34;94813.06;;;3.83;69.89
65832;BME280;52593;42.648;23.332;2023-02-19T02:11:18;94815.16;;;3.89;69.74
65832;BME280;52593;42.648;23.332;2023-02-19T02:13:44;94800.78;;;3.92;69.37
65832;BME280;52593;42.648;23.332;2023-02-19T02:16:19;94815.28;;;3.88;69.77
65832;BME280;52593;42.648;23.332;2023-02-19T02:18:50;94815.03;;;3.91;69.48
65832;BME280;52593;42.648;23.332;2023-02-19T02:24:24;94819.47;;;3.90;70.20
65832;BME280;52593;42.648;23.332;2023-02-19T02:29:47;94810.00;;;3.98;68.92
65832;BME280;52593;42.648;23.332;2023-02-19T02:32:18;94812.28;;;4.22;67.92
65832;BME280;52593;42.648;23.332;2023-02-19T02:34:53;94807.41;;;4.17;67.35
65832;BME280;52593;42.648;23.332;2023-02-19T02:37:22;94801.97;;;4.09;67.75
65832;BME280;52593;42.648;23.332;2023-02-19T02:39:48;94815.19;;;4.09;67.96
65832;BME280;52593;42.648;23.332;2023-02-19T02:42:14;94807.94;;;4.11;67.85
65832;BME280;52593;42.648;23.332;2023-02-19T02:44:55;94821.06;;;4.03;67.89
65832;BME280;52593;42.648;23.332;2023-02-19T02:47:47;94823.91;;;3.80;68.87
65832;BME280;52593;42.648;23.332;2023-02-19T02:50:24;94815.44;;;3.86;69.21
65832;BME280;52593;42.648;23.332;2023-02-19T02:52:56;94806.28;;;3.60;69.64
65832;BME280;52593;42.648;23.332;2023-02-19T02:55:43;94827.78;;;3.66;69.75
65832;BME280;52593;42.648;23.332;2023-02-19T02:58:12;94813.97;;;3.63;69.69
65832;BME280;52593;42.648;23.332;2023-02-19T03:00:40;94809.31;;;3.45;70.16
65832;BME280;52593;42.648;23.332;2023-02-19T03:03:27;94810.59;;;3.51;70.28
65832;BME280;52593;42.648;23.332;2023-02-19T03:05:58;94820.03;;;3.44;70.43
65832;BME280;52593;42.648;23.332;2023-02-19T03:08:29;94816.28;;;3.46;70.39
65832;BME280;52593;42.648;23.332;2023-02-19T03:10:59;94824.16;;;3.36;70.97
65832;BME280;52593;42.648;23.332;2023-02-19T03:13:46;94817.16;;;3.26;71.44
65832;BME280;52593;42.648;23.332;2023-02-19T03:16:35;94831.88;;;3.18;71.74
65832;BME280;52593;42.648;23.332;2023-02-19T03:19:22;94827.56;;;3.17;71.78
65832;BME280;52593;42.648;23.332;2023-02-19T03:21:59;94845.34;;;3.15;72.24
65832;BME280;52593;42.648;23.332;2023-02-19T03:24:29;94844.84;;;3.21;72.08
65832;BME280;52593;42.648;23.332;2023-02-19T03:27:32;94850.00;;;3.23;71.91
65832;BME280;52593;42.648;23.332;2023-02-19T03:30:02;94851.63;;;3.14;72.13
65832;BME280;52593;42.648;23.332;2023-02-19T03:32:43;94856.03;;;3.04;72.56
65832;BME280;52593;42.648;23.332;2023-02-19T03:35:14;94865.91;;;3.02;73.03
65832;BME280;52593;42.648;23.332;2023-02-19T03:37:45;94849.44;;;2.98;73.12
65832;BME280;52593;42.648;23.332;2023-02-19T03:40:14;94857.97;;;3.02;73.10
65832;BME280;52593;42.648;23.332;2023-02-19T03:42:56;94869.94;;;3.06;73.20
65832;BME280;52593;42.648;23.332;2023-02-19T03:45:32;94859.22;;;3.08;72.77
65832;BME280;52593;42.648;23.332;2023-02-19T03:48:17;94871.56;;;2.97;72.52
65832;BME280;52593;42.648;23.332;2023-02-19T03:50:49;94860.16;;;2.97;73.07
65832;BME280;52593;42.648;23.332;2023-02-19T03:53:58;94878.59;;;2.87;73.90
65832;BME280;52593;42.648;23.332;2023-02-19T03:56:55;94869.50;;;2.80;74.54
65832;BME280;52593;42.648;23.332;2023-02-19T04:02:06;94876.84;;;2.76;74.48
65832;BME280;52593;42.648;23.332;2023-02-19T04:04:42;94883.47;;;2.71;75.12
65832;BME280;52593;42.648;23.332;2023-02-19T04:07:08;94883.41;;;2.61;75.08
65832;BME280;52593;42.648;23.332;2023-02-19T04:09:44;94889.91;;;2.57;75.77
65832;BME280;52593;42.648;23.332;2023-02-19T04:12:11;94894.59;;;2.53;75.89
65832;BME280;52593;42.648;23.332;2023-02-19T04:14:43;94882.66;;;2.59;75.83
65832;BME280;52593;42.648;23.332;2023-02-19T04:17:19;94893.13;;;2.60;75.66
65832;BME280;52593;42.648;23.332;2023-02-19T04:19:47;94900.47;;;2.57;75.93
65832;BME280;52593;42.648;23.332;2023-02-19T04:22:16;94898.84;;;2.44;76.30
65832;BME280;52593;42.648;23.332;2023-02-19T04:24:46;94905.56;;;2.48;76.22
65832;BME280;52593;42.648;23.332;2023-02-19T04:27:12;94900.03;;;2.52;76.39
65832;BME280;52593;42.648;23.332;2023-02-19T04:29:37;94891.41;;;2.38;76.59
65832;BME280;52593;42.648;23.332;2023-02-19T04:32:03;94892.59;;;2.45;76.23
65832;BME280;52593;42.648;23.332;2023-02-19T04:34:29;94902.19;;;2.46;76.02
65832;BME280;52593;42.648;23.332;2023-02-19T04:36:54;94898.53;;;2.59;76.15
65832;BME280;52593;42.648;23.332;2023-02-19T04:39:19;94890.97;;;2.54;76.12
65832;BME280;52593;42.648;23.332;2023-02-19T04:41:45;94902.72;;;2.61;75.96
65832;BME280;52593;42.648;23.332;2023-02-19T04:44:10;94892.09;;;2.52;75.98
65832;BME280;52593;42.648;23.332;2023-02-19T04:46:36;94892.16;;;2.61;76.20
65832;BME280;52593;42.648;23.332;2023-02-19T04:49:01;94900.31;;;2.70;75.62
65832;BME280;52593;42.648;23.332;2023-02-19T04:51:26;94892.13;;;2.73;75.40
65832;BME280;52593;42.648;23.332;2023-02-19T04:53:52;94894.91;;;2.71;75.60
65832;BME280;52593;42.648;23.332;2023-02-19T04:56:17;94895.84;;;2.70;75.29
65832;BME280;52593;42.648;23.332;2023-02-19T04:58:44;94901.59;;;2.75;75.02
65832;BME280;52593;42.648;23.332;2023-02-19T05:01:10;94915.72;;;2.85;74.69
65832;BME280;52593;42.648;23.332;2023-02-19T05:03:36;94893.88;;;2.83;74.59
65832;BME280;52593;42.648;23.332;2023-02-19T05:06:07;94901.94;;;2.82;74.74
65832;BME280;52593;42.648;23.332;2023-02-19T05:08:33;94902.50;;;2.85;74.48
65832;BME280;52593;42.648;23.332;2023-02-19T05:11:03;94911.88;;;2.90;74.40
65832;BME280;52593;42.648;23.332;2023-02-19T05:13:30;94900.13;;;2.82;74.42
65832;BME280;52593;42.648;23.332;2023-02-19T05:16:04;94892.56;;;2.78;74.50
65832;BME280;52593;42.648;23.332;2023-02-19T05:18:30;94909.13;;;2.80;74.70
65832;BME280;52593;42.648;23.332;2023-02-19T05:20:57;94897.34;;;2.84;74.29
65832;BME280;52593;42.648;23.332;2023-02-19T05:23:24;94909.09;;;2.91;74.61
65832;BME280;52593;42.648;23.332;2023-02-19T05:25:50;94904.63;;;2.92;74.59
65832;BME280;52593;42.648;23.332;2023-02-19T05:28:15;94911.09;;;2.99;73.86
65832;BME280;52593;42.648;23.332;2023-02-19T05:30:42;94906.00;;;3.07;74.10
65832;BME280;52593;42.648;23.332;2023-02-19T05:33:07;94910.69;;;3.25;73.11
65832;BME280;52593;42.648;23.332;2023-02-19T05:35:33;94924.44;;;3.39;72.82
65832;BME280;52593;42.648;23.332;2023-02-19T05:37:58;94928.81;;;3.50;72.37
65832;BME280;52593;42.648;23.332;2023-02-19T05:40:23;94923.50;;;3.50;72.47
65832;BME280;52593;42.648;23.332;2023-02-19T05:42:49;94933.84;;;3.53;72.53
65832;BME280;52593;42.648;23.332;2023-02-19T05:45:14;94933.91;;;3.63;72.23
65832;BME280;52593;42.648;23.332;2023-02-19T05:47:40;94929.97;;;3.57;72.25
65832;BME280;52593;42.648;23.332;2023-02-19T05:50:05;94925.44;;;3.69;71.99
65832;BME280;52593;42.648;23.332;2023-02-19T05:52:31;94916.22;;;3.73;71.94
65832;BME280;52593;42.648;23.332;2023-02-19T05:54:57;94917.25;;;3.82;71.51
65832;BME280;52593;42.648;23.332;2023-02-19T05:57:22;94928.28;;;3.87;71.59
65832;BME280;52593;42.648;23.332;2023-02-19T05:59:47;94929.56;;;3.93;71.14
65832;BME280;52593;42.648;23.332;2023-02-19T06:02:13;94940.09;;;4.14;70.80
65832;BME280;52593;42.648;23.332;2023-02-19T06:04:38;94940.50;;;4.19;70.86
65832;BME280;52593;42.648;23.332;2023-02-19T06:07:03;94949.34;;;4.29;70.39
65832;BME280;52593;42.648;23.332;2023-02-19T06:09:29;94954.84;;;4.57;69.41
65832;BME280;52593;42.648;23.332;2023-02-19T06:11:56;94954.28;;;4.63;68.90
65832;BME280;52593;42.648;23.332;2023-02-19T06:14:21;94955.72;;;4.87;68.03
65832;BME280;52593;42.648;23.332;2023-02-19T06:16:47;94955.03;;;5.05;67.27
65832;BME280;52593;42.648;23.332;2023-02-19T06:19:12;94953.91;;;5.27;66.23
65832;BME280;52593;42.648;23.332;2023-02-19T06:21:37;94954.84;;;5.35;66.02
65832;BME280;52593;42.648;23.332;2023-02-19T06:24:07;94953.50;;;5.79;64.21
65832;BME280;52593;42.648;23.332;2023-02-19T06:26:33;94952.34;;;5.91;64.16
65832;BME280;52593;42.648;23.332;2023-02-19T06:28:59;94952.78;;;5.96;63.37
65832;BME280;52593;42.648;23.332;2023-02-19T06:31:24;94957.34;;;6.14;63.06
65832;BME280;52593;42.648;23.332;2023-02-19T06:33:50;94953.94;;;6.21;62.72
65832;BME280;52593;42.648;23.332;2023-02-19T06:36:18;94959.38;;;6.57;61.73
65832;BME280;52593;42.648;23.332;2023-02-19T06:38:44;94961.63;;;6.80;61.03
65832;BME280;52593;42.648;23.332;2023-02-19T06:41:10;94956.00;;;7.01;60.76
65832;BME280;52593;42.648;23.332;2023-02-19T06:43:36;94959.88;;;7.25;59.61
65832;BME280;52593;42.648;23.332;2023-02-19T06:46:03;94931.34;;;7.35;59.16
65832;BME280;52593;42.648;23.332;2023-02-19T06:48:30;94950.09;;;7.52;58.30
65832;BME280;52593;42.648;23.332;2023-02-19T06:50:56;94954.03;;;7.65;58.18
65832;BME280;52593;42.648;23.332;2023-02-19T06:53:21;94950.53;;;7.91;57.23
65832;BME280;52593;42.648;23.332;2023-02-19T06:58:21;94944.91;;;8.29;55.56
65832;BME280;52593;42.648;23.332;2023-02-19T07:00:46;94951.91;;;8.30;55.37
65832;BME280;52593;42.648;23.332;2023-02-19T07:03:12;94954.31;;;8.41;55.18
65832;BME280;52593;42.648;23.332;2023-02-19T07:05:37;94953.00;;;8.45;54.99
65832;BME280;52593;42.648;23.332;2023-02-19T07:08:02;94964.91;;;8.59;54.39
65832;BME280;52593;42.648;23.332;2023-02-19T07:10:28;94961.22;;;8.60;54.44
65832;BME280;52593;42.648;23.332;2023-02-19T07:12:53;94957.91;;;8.58;54.82
65832;BME280;52593;42.648;23.332;2023-02-19T07:15:18;94970.34;;;8.49;55.30
65832;BME280;52593;42.648;23.332;2023-02-19T07:17:44;94958.13;;;8.38;55.11
65832;BME280;52593;42.648;23.332;2023-02-19T07:20:09;94962.63;;;8.38;54.77
65832;BME280;52593;42.648;23.332;2023-02-19T07:22:35;94957.28;;;8.38;54.97
65832;BME280;52593;42.648;23.332;2023-02-19T07:25:00;94950.91;;;8.31;54.89
65832;BME280;52593;42.648;23.332;2023-02-19T07:27:26;94945.25;;;8.26;54.89
65832;BME280;52593;42.648;23.332;2023-02-19T07:29:51;94949.56;;;8.27;54.40
65832;BME280;52593;42.648;23.332;2023-02-19T07:32:16;94936.78;;;8.38;54.28
65832;BME280;52593;42.648;23.332;2023-02-19T07:34:42;94944.34;;;8.51;53.62
65832;BME280;52593;42.648;23.332;2023-02-19T07:37:07;94940.75;;;8.61;53.28
65832;BME280;52593;42.648;23.332;2023-02-19T07:39:32;94939.94;;;8.68;53.08
65832;BME280;52593;42.648;23.332;2023-02-19T07:41:58;94930.44;;;8.74;52.78
65832;BME280;52593;42.648;23.332;2023-02-19T07:44:23;94927.63;;;8.84;52.71
65832;BME280;52593;42.648;23.332;2023-02-19T07:46:49;94940.66;;;8.95;52.53
65832;BME280;52593;42.648;23.332;2023-02-19T07:49:14;94942.84;;;9.00;52.27
65832;BME280;52593;42.648;23.332;2023-02-19T07:51:40;94924.81;;;9.02;52.36
65832;BME280;52593;42.648;23.332;2023-02-19T07:54:05;94927.19;;;9.13;52.19
65832;BME280;52593;42.648;23.332;2023-02-19T07:56:31;94921.34;;;9.18;51.54
65832;BME280;52593;42.648;23.332;2023-02-19T07:58:59;94914.16;;;9.35;50.91
65832;BME280;52593;42.648;23.332;2023-02-19T08:01:25;94915.84;;;9.36;51.14
65832;BME280;52593;42.648;23.332;2023-02-19T08:04:11;94929.50;;;9.49;51.44
65832;BME280;52593;42.648;23.332;2023-02-19T08:06:36;94926.84;;;9.57;50.87
65832;BME280;52593;42.648;23.332;2023-02-19T08:09:03;94926.66;;;9.75;50.42
65832;BME280;52593;42.648;23.332;2023-02-19T08:11:29;94913.94;;;9.86;49.97
65832;BME280;52593;42.648;23.332;2023-02-19T08:14:32;94918.09;;;9.96;49.94
65832;BME280;52593;42.648;23.332;2023-02-19T08:16:58;94920.41;;;10.16;49.81
65832;BME280;52593;42.648;23.332;2023-02-19T08:19:23;94914.66;;;10.27;49.19
65832;BME280;52593;42.648;23.332;2023-02-19T08:21:48;94918.84;;;10.38;49.80
65832;BME280;52593;42.648;23.332;2023-02-19T08:24:15;94918.66;;;10.40;48.74
65832;BME280;52593;42.648;23.332;2023-02-19T08:26:40;94918.31;;;10.43;49.30
65832;BME280;52593;42.648;23.332;2023-02-19T08:29:05;94913.59;;;10.53;48.85
65832;BME280;52593;42.648;23.332;2023-02-19T08:31:32;94919.56;;;10.63;48.43
65832;BME280;52593;42.648;23.332;2023-02-19T08:33:57;94923.41;;;10.69;48.62
65832;BME280;52593;42.648;23.332;2023-02-19T08:36:23;94922.56;;;10.68;48.55
65832;BME280;52593;42.648;23.332;2023-02-19T08:38:48;94921.72;;;10.68;48.69
65832;BME280;52593;42.648;23.332;2023-02-19T08:41:14;94914.25;;;10.86;49.16
65832;BME280;52593;42.648;23.332;2023-02-19T08:43:40;94917.22;;;10.92;48.74
65832;BME280;52593;42.648;23.332;2023-02-19T08:46:06;94918.16;;;11.30;47.88
65832;BME280;52593;42.648;23.332;2023-02-19T08:48:34;94902.00;;;11.62;47.03
65832;BME280;52593;42.648;23.332;2023-02-19T08:51:02;94898.50;;;11.76;46.61
65832;BME280;52593;42.648;23.332;2023-02-19T08:53:29;94908.00;;;12.02;46.16
65832;BME280;52593;42.648;23.332;2023-02-19T08:55:55;94891.47;;;12.13;44.98
65832;BME280;52593;42.648;23.332;2023-02-19T08:58:21;94883.44;;;12.13;45.18
65832;BME280;52593;42.648;23.332;2023-02-19T09:00:47;94886.81;;;12.22;45.08
65832;BME280;52593;42.648;23.332;2023-02-19T09:03:13;94888.50;;;12.23;45.31
65832;BME280;52593;42.648;23.332;2023-02-19T09:05:38;94875.19;;;12.15;46.48
65832;BME280;52593;42.648;23.332;2023-02-19T09:08:04;94880.91;;;12.26;45.61
65832;BME280;52593;42.648;23.332;2023-02-19T09:10:30;94867.31;;;12.28;45.86
65832;BME280;52593;42.648;23.332;2023-02-19T09:12:55;94868.41;;;12.34;45.60
65832;BME280;52593;42.648;23.332;2023-02-19T09:15:27;94841.59;;;12.34;45.32
65832;BME280;52593;42.648;23.332;2023-02-19T09:17:54;94862.94;;;12.42;45.20
65832;BME280;52593;42.648;23.332;2023-02-19T09:20:19;94856.94;;;12.40;45.27
65832;BME280;52593;42.648;23.332;2023-02-19T09:22:45;94846.75;;;12.35;45.56
65832;BME280;52593;42.648;23.332;2023-02-19T09:25:10;94837.22;;;12.47;44.57
65832;BME280;52593;42.648;23.332;2023-02-19T09:27:36;94849.50;;;12.42;44.72
65832;BME280;52593;42.648;23.332;2023-02-19T09:30:02;94847.72;;;12.64;44.56
65832;BME280;52593;42.648;23.332;2023-02-19T09:32:31;94865.66;;;12.78;44.00
65832;BME280;52593;42.648;23.332;2023-02-19T09:34:56;94844.66;;;12.67;44.42
65832;BME280;52593;42.648;23.332;2023-02-19T09:37:25;94858.53;;;12.71;44.00
65832;BME280;52593;42.648;23.332;2023-02-19T09:39:51;94850.44;;;12.85;43.90
65832;BME280;52593;42.648;23.332;2023-02-19T09:42:19;94845.06;;;12.85;43.23
65832;BME280;52593;42.648;23.332;2023-02-19T09:44:49;94846.44;;;12.96;43.00
65832;BME280;52593;42.648;23.332;2023-02-19T09:47:20;94849.50;;;13.15;42.86
65832;BME280;52593;42.648;23.332;2023-02-19T09:49:48;94839.22;;;13.18;42.33
65832;BME280;52593;42.648;23.332;2023-02-19T09:52:37;94843.44;;;13.28;42.59
65832;BME280;52593;42.648;23.332;2023-02-19T09:57:41;94833.84;;;13.40;42.13
65832;BME280;52593;42.648;23.332;2023-02-19T10:02:36;94815.91;;;13.47;41.15
65832;BME280;52593;42.648;23.332;2023-02-19T10:05:05;94800.38;;;13.71;41.06
65832;BME280;52593;42.648;23.332;2023-02-19T10:07:40;94800.91;;;13.60;41.07
65832;BME280;52593;42.648;23.332;2023-02-19T10:12:47;94800.53;;;13.98;40.85
65832;BME280;52593;42.648;23.332;2023-02-19T10:15:24;94798.97;;;14.17;40.33
65832;BME280;52593;42.648;23.332;2023-02-19T10:17:53;94780.19;;;14.30;39.47
65832;BME280;52593;42.648;23.332;2023-02-19T10:20:21;94779.56;;;14.35;39.71
65832;BME280;52593;42.648;23.332;2023-02-19T10:23:01;94764.53;;;14.54;39.25
65832;BME280;52593;42.648;23.332;2023-02-19T10:25:27;94761.34;;;14.92;41.11
65832;BME280;52593;42.648;23.332;2023-02-19T10:27:54;94763.41;;;14.96;38.28
65832;BME280;52593;42.648;23.332;2023-02-19T10:30:28;94759.25;;;15.01;38.24
65832;BME280;52593;42.648;23.332;2023-02-19T10:35:27;94748.91;;;14.91;38.24
65832;BME280;52593;42.648;23.332;2023-02-19T10:37:53;94744.94;;;14.80;38.01
65832;BME280;52593;42.648;23.332;2023-02-19T10:40:21;94733.53;;;14.71;38.62
65832;BME280;52593;42.648;23.332;2023-02-19T10:42:49;94741.63;;;14.85;38.44
65832;BME280;52593;42.648;23.332;2023-02-19T10:45:20;94722.13;;;14.69;38.39
65832;BME280;52593;42.648;23.332;2023-02-19T10:47:47;94727.13;;;14.86;38.37
65832;BME280;52593;42.648;23.332;2023-02-19T10:50:33;94724.66;;;15.04;37.95
65832;BME280;52593;42.648;23.332;2023-02-19T10:53:04;94709.94;;;14.93;38.11
65832;BME280;52593;42.648;23.332;2023-02-19T10:55:32;94707.84;;;15.02;37.94
65832;BME280;52593;42.648;23.332;2023-02-19T10:58:22;94712.00;;;15.25;37.60
65832;BME280;52593;42.648;23.332;2023-02-19T11:01:09;94697.91;;;15.09;37.26
65832;BME280;52593;42.648;23.332;2023-02-19T11:03:34;94690.25;;;15.20;37.45
65832;BME280;52593;42.648;23.332;2023-02-19T11:06:02;94691.06;;;15.33;37.39
65832;BME280;52593;42.648;23.332;2023-02-19T11:08:29;94696.47;;;15.27;37.09
65832;BME280;52593;42.648;23.332;2023-02-19T11:10:55;94674.44;;;15.43;36.93
65832;BME280;52593;42.648;23.332;2023-02-19T11:13:27;94674.63;;;15.55;36.47
65832;BME280;52593;42.648;23.332;2023-02-19T11:15:55;94667.97;;;15.51;36.51
65832;BME280;52593;42.648;23.332;2023-02-19T11:18:26;94673.81;;;15.55;36.86
65832;BME280;52593;42.648;23.332;2023-02-19T11:21:01;94652.78;;;15.77;35.93
65832;BME280;52593;42.648;23.332;2023-02-19T11:23:31;94657.56;;;15.81;36.16
65832;BME280;52593;42.648;23.332;2023-02-19T11:26:00;94646.56;;;15.83;35.72
65832;BME280;52593;42.648;23.332;2023-02-19T11:28:31;94633.41;;;16.00;35.21
65832;BME280;52593;42.648;23.332;2023-02-19T11:33:58;94643.88;;;16.21;35.02
65832;BME280;52593;42.648;23.332;2023-02-19T11:39:20;94616.72;;;16.16;35.10
65832;BME280;52593;42.648;23.332;2023-02-19T11:50:28;94608.84;;;16.72;34.17
65832;BME280;52593;42.648;23.332;2023-02-19T12:01:22;94598.97;;;16.84;34.12
65832;BME280;52593;42.648;23.332;2023-02-19T12:20:29;94569.56;;;17.57;33.27
65832;BME280;52593;42.648;23.332;2023-02-19T12:36:35;94536.28;;;18.05;32.31
65832;BME280;52593;42.648;23.332;2023-02-19T12:42:02;94521.53;;;17.71;32.45
65832;BME280;52593;42.648;23.332;2023-02-19T12:47:07;94516.84;;;17.78;32.02
65832;BME280;52593;42.648;23.332;2023-02-19T12:49:46;94517.47;;;18.10;32.17
65832;BME280;52593;42.648;23.332;2023-02-19T12:52:22;94503.84;;;18.29;32.15
65832;BME280;52593;42.648;23.332;2023-02-19T12:54:53;94495.94;;;18.15;31.88
65832;BME280;52593;42.648;23.332;2023-02-19T12:57:31;94499.47;;;18.28;31.75
65832;BME280;52593;42.648;23.332;2023-02-19T13:05:43;94484.09;;;18.52;31.27
65832;BME280;52593;42.648;23.332;2023-02-19T13:08:27;94476.09;;;18.45;31.08
65832;BME280;52593;42.648;23.332;2023-02-19T13:11:01;94473.81;;;18.30;31.28
65832;BME280;52593;42.648;23.332;2023-02-19T13:13:42;94481.16;;;18.53;31.21
65832;BME280;52593;42.648;23.332;2023-02-19T13:16:14;94468.66;;;18.52;31.14
65832;BME280;52593;42.648;23.332;2023-02-19T13:18:45;94467.63;;;18.89;30.06
65832;BME280;52593;42.648;23.332;2023-02-19T13:21:13;94452.72;;;19.56;29.58
65832;BME280;52593;42.648;23.332;2023-02-19T13:24:04;94449.59;;;21.56;26.34
65832;BME280;52593;42.648;23.332;2023-02-19T13:32:42;94428.41;;;24.09;23.06
65832;BME280;52593;42.648;23.332;2023-02-19T13:38:16;94429.66;;;23.65;23.62
65832;BME280;52593;42.648;23.332;2023-02-19T13:41:00;94428.34;;;23.83;23.02
65832;BME280;52593;42.648;23.332;2023-02-19T13:43:30;94413.09;;;23.93;23.16
65832;BME280;52593;42.648;23.332;2023-02-19T13:46:08;94426.75;;;23.88;23.25
65832;BME280;52593;42.648;23.332;2023-02-19T13:48:39;94437.41;;;22.40;24.04
65832;BME280;52593;42.648;23.332;2023-02-19T13:53:58;94426.75;;;21.79;25.43
65832;BME280;52593;42.648;23.332;2023-02-19T14:04:23;94432.00;;;18.03;30.81
65832;BME280;52593;42.648;23.332;2023-02-19T14:14:34;94412.75;;;20.82;27.78
65832;BME280;52593;42.648;23.332;2023-02-19T14:19:55;94418.94;;;20.99;27.03
65832;BME280;52593;42.648;23.332;2023-02-19T14:28:00;94388.22;;;20.60;27.66
65832;BME280;52593;42.648;23.332;2023-02-19T14:30:26;94381.34;;;22.22;25.36
65832;BME280;52593;42.648;23.332;2023-02-19T14:32:52;94373.91;;;23.61;23.56
65832;BME280;52593;42.648;23.332;2023-02-19T14:35:24;94371.53;;;24.01;22.73
65832;BME280;52593;42.648;23.332;2023-02-19T14:37:51;94379.28;;;23.30;23.70
65832;BME280;52593;42.648;23.332;2023-02-19T14:40:38;94385.78;;;21.47;26.04
65832;BME280;52593;42.648;23.332;2023-02-19T14:43:12;94386.50;;;20.20;27.56
65832;BME280;52593;42.648;23.332;2023-02-19T14:45:45;94383.63;;;19.18;29.55
65832;BME280;52593;42.648;23.332;2023-02-19T14:48:18;94383.25;;;18.50;30.08
65832;BME280;52593;42.648;23.332;2023-02-19T14:50:48;94387.38;;;17.75;31.60
65832;BME280;52593;42.648;23.332;2023-02-19T14:53:15;94385.84;;;17.25;32.10
65832;BME280;52593;42.648;23.332;2023-02-19T14:55:42;94390.22;;;17.26;32.79
65832;BME280;52593;42.648;23.332;2023-02-19T14:58:14;94378.78;;;17.24;32.74
65832;BME280;52593;42.648;23.332;2023-02-19T15:00:41;94374.69;;;17.03;33.16
65832;BME280;52593;42.648;23.332;2023-02-19T15:03:34;94366.75;;;16.71;33.71
65832;BME280;52593;42.648;23.332;2023-02-19T15:06:06;94375.81;;;16.58;33.85
65832;BME280;52593;42.648;23.332;2023-02-19T15:08:36;94361.19;;;16.29;34.80
65832;BME280;52593;42.648;23.332;2023-02-19T15:11:06;94364.41;;;16.19;34.90